sensor_id;sensor_type;location;lat;lon;timestamp;pressure;altitude;pressure_sealevel;temperature;humidity
8280;BME280;8335;42.646;23.380;2023-04-27T00:00:28;143661.72;;;8.38;63.34
8280;BME280;8335;42.646;23.380;2023-04-27T00:02:54;143670.38;;;8.41;62.94
8280;BME280;8335;42.646;23.380;2023-04-27T00:05:21;143662.97;;;8.38;63.60
8280;BME280;8335;42.646;23.380;2023-04-27T00:07:48;143660.50;;;8.37;64.10
8280;BME280;8335;42.646;23.380;2023-04-27T00:10:17;143656.72;;;8.36;63.29
8280;BME280;8335;42.646;23.380;2023-04-27T00:12:43;143640.59;;;8.29;63.39
8280;BME280;8335;42.646;23.380;2023-04-27T00:15:10;143655.50;;;8.35;62.99
8280;BME280;8335;42.646;23.380;2023-04-27T00:17:37;143634.38;;;8.26;63.78
8280;BME280;8335;42.646;23.380;2023-04-27T00:20:05;143644.31;;;8.31;64.03
8280;BME280;8335;42.646;23.380;2023-04-27T00:22:34;143625.69;;;8.23;63.85
8280;BME280;8335;42.646;23.380;2023-04-27T00:25:01;143608.31;;;8.16;63.16
8280;BME280;8335;42.646;23.380;2023-04-27T00:27:29;143584.72;;;8.06;63.66
8280;BME280;8335;42.646;23.380;2023-04-27T00:29:56;143533.88;;;7.85;63.70
8280;BME280;8335;42.646;23.380;2023-04-27T00:32:22;143583.50;;;8.06;64.14
8280;BME280;8335;42.646;23.380;2023-04-27T00:34:49;143593.44;;;8.10;63.62
8280;BME280;8335;42.646;23.380;2023-04-27T00:37:16;143566.13;;;7.98;63.75
8280;BME280;8335;42.646;23.380;2023-04-27T00:39:43;143561.19;;;7.96;64.49
8280;BME280;8335;42.646;23.380;2023-04-27T00:42:09;143557.47;;;7.95;63.94
8280;BME280;8335;42.646;23.380;2023-04-27T00:44:41;143531.38;;;7.84;64.46
8280;BME280;8335;42.646;23.380;2023-04-27T00:47:08;143531.38;;;7.84;64.63
8280;BME280;8335;42.646;23.380;2023-04-27T00:49:35;143528.91;;;7.83;64.11
8280;BME280;8335;42.646;23.380;2023-04-27T00:52:02;143502.91;;;7.72;64.72
8280;BME280;8335;42.646;23.380;2023-04-27T00:54:30;143517.78;;;7.79;64.55
8280;BME280;8335;42.646;23.380;2023-04-27T00:56:57;143492.94;;;7.68;64.73
8280;BME280;8335;42.646;23.380;2023-04-27T00:59:24;143504.13;;;7.73;64.52
8280;BME280;8335;42.646;23.380;2023-04-27T01:01:53;143480.53;;;7.63;64.62
8280;BME280;8335;42.646;23.380;2023-04-27T01:04:21;143488.00;;;7.66;64.87
8280;BME280;8335;42.646;23.380;2023-04-27T01:06:48;143479.31;;;7.63;65.05
8280;BME280;8335;42.646;23.380;2023-04-27T01:09:14;143463.19;;;7.56;64.91
8280;BME280;8335;42.646;23.380;2023-04-27T01:11:44;143464.41;;;7.57;65.38
8280;BME280;8335;42.646;23.380;2023-04-27T01:14:10;143447.06;;;7.50;65.23
8280;BME280;8335;42.646;23.380;2023-04-27T01:16:37;143433.44;;;7.44;65.73
8280;BME280;8335;42.646;23.380;2023-04-27T01:19:06;143388.81;;;7.26;65.88
8280;BME280;8335;42.646;23.380;2023-04-27T01:21:34;143381.38;;;7.23;65.58
8280;BME280;8335;42.646;23.380;2023-04-27T01:24:03;143377.63;;;7.21;66.26
8280;BME280;8335;42.646;23.380;2023-04-27T01:26:30;143378.91;;;7.22;66.13
8280;BME280;8335;42.646;23.380;2023-04-27T01:28:57;143364.03;;;7.15;66.62
8280;BME280;8335;42.646;23.380;2023-04-27T01:31:23;143360.28;;;7.14;66.82
8280;BME280;8335;42.646;23.380;2023-04-27T01:33:50;143360.28;;;7.14;66.58
8280;BME280;8335;42.646;23.380;2023-04-27T01:36:17;143347.91;;;7.09;66.71
8280;BME280;8335;42.646;23.380;2023-04-27T01:38:44;143334.25;;;7.03;67.17
8280;BME280;8335;42.646;23.380;2023-04-27T01:41:12;143319.38;;;6.97;67.52
8280;BME280;8335;42.646;23.380;2023-04-27T01:43:39;143305.75;;;6.92;68.13
8280;BME280;8335;42.646;23.380;2023-04-27T01:46:07;143288.41;;;6.84;67.98
8280;BME280;8335;42.646;23.380;2023-04-27T01:48:34;143292.16;;;6.86;67.69
8280;BME280;8335;42.646;23.380;2023-04-27T01:51:01;143302.03;;;6.90;67.67
8280;BME280;8335;42.646;23.380;2023-04-27T01:53:28;143294.63;;;6.87;67.73
8280;BME280;8335;42.646;23.380;2023-04-27T01:55:55;143261.16;;;6.73;68.00
8280;BME280;8335;42.646;23.380;2023-04-27T01:58:23;143268.56;;;6.76;67.29
8280;BME280;8335;42.646;23.380;2023-04-27T02:00:50;143276.03;;;6.79;67.86
8280;BME280;8335;42.646;23.380;2023-04-27T02:03:17;143276.03;;;6.79;68.46
8280;BME280;8335;42.646;23.380;2023-04-27T02:05:44;143276.03;;;6.79;68.05
8280;BME280;8335;42.646;23.380;2023-04-27T02:08:11;143253.69;;;6.70;67.62
8280;BME280;8335;42.646;23.380;2023-04-27T02:10:38;143258.69;;;6.72;67.79
8280;BME280;8335;42.646;23.380;2023-04-27T02:13:05;143258.69;;;6.72;67.37
8280;BME280;8335;42.646;23.380;2023-04-27T02:15:33;143253.69;;;6.70;67.26
8280;BME280;8335;42.646;23.380;2023-04-27T02:18:01;143248.75;;;6.68;67.73
8280;BME280;8335;42.646;23.380;2023-04-27T02:20:29;143221.47;;;6.57;67.94
8280;BME280;8335;42.646;23.380;2023-04-27T02:22:55;143231.41;;;6.61;67.70
8280;BME280;8335;42.646;23.380;2023-04-27T02:25:22;143241.34;;;6.65;67.79
8280;BME280;8335;42.646;23.380;2023-04-27T02:27:49;143241.34;;;6.65;66.99
8280;BME280;8335;42.646;23.380;2023-04-27T02:30:16;143215.28;;;6.54;67.39
8280;BME280;8335;42.646;23.380;2023-04-27T02:32:44;143219.00;;;6.56;67.72
8280;BME280;8335;42.646;23.380;2023-04-27T02:35:11;143211.59;;;6.53;68.20
8280;BME280;8335;42.646;23.380;2023-04-27T02:37:38;143202.91;;;6.49;68.02
8280;BME280;8335;42.646;23.380;2023-04-27T02:40:06;143197.94;;;6.47;67.69
8280;BME280;8335;42.646;23.380;2023-04-27T02:42:33;143210.34;;;6.52;67.86
8280;BME280;8335;42.646;23.380;2023-04-27T02:45:03;143205.41;;;6.50;67.83
8280;BME280;8335;42.646;23.380;2023-04-27T02:47:30;143193.00;;;6.45;67.19
8280;BME280;8335;42.646;23.380;2023-04-27T02:49:58;143181.84;;;6.41;67.02
8280;BME280;8335;42.646;23.380;2023-04-27T02:52:25;143170.72;;;6.36;67.78
8280;BME280;8335;42.646;23.380;2023-04-27T02:54:52;143181.84;;;6.41;67.27
8280;BME280;8335;42.646;23.380;2023-04-27T02:57:18;143189.31;;;6.44;67.47
8280;BME280;8335;42.646;23.380;2023-04-27T02:59:45;143178.13;;;6.39;67.46
8280;BME280;8335;42.646;23.380;2023-04-27T03:02:12;143180.59;;;6.40;68.03
8280;BME280;8335;42.646;23.380;2023-04-27T03:04:38;143136.03;;;6.22;67.77
8280;BME280;8335;42.646;23.380;2023-04-27T03:07:07;143174.44;;;6.38;67.68
8280;BME280;8335;42.646;23.380;2023-04-27T03:09:34;143190.53;;;6.44;67.64
8280;BME280;8335;42.646;23.380;2023-04-27T03:12:01;143185.53;;;6.42;67.59
8280;BME280;8335;42.646;23.380;2023-04-27T03:14:28;143191.78;;;6.45;66.95
8280;BME280;8335;42.646;23.380;2023-04-27T03:16:55;143175.66;;;6.38;67.53
8280;BME280;8335;42.646;23.380;2023-04-27T03:19:22;143175.66;;;6.38;66.87
8280;BME280;8335;42.646;23.380;2023-04-27T03:21:48;143178.13;;;6.39;67.83
8280;BME280;8335;42.646;23.380;2023-04-27T03:24:17;143176.91;;;6.39;67.80
8280;BME280;8335;42.646;23.380;2023-04-27T03:26:43;143179.38;;;6.40;67.51
8280;BME280;8335;42.646;23.380;2023-04-27T03:29:10;143183.06;;;6.41;66.29
8280;BME280;8335;42.646;23.380;2023-04-27T03:31:37;143188.06;;;6.43;67.04
8280;BME280;8335;42.646;23.380;2023-04-27T03:34:04;143183.06;;;6.41;66.67
8280;BME280;8335;42.646;23.380;2023-04-27T03:36:31;143147.16;;;6.26;67.30
8280;BME280;8335;42.646;23.380;2023-04-27T03:38:57;143112.47;;;6.12;66.97
8280;BME280;8335;42.646;23.380;2023-04-27T03:41:25;143159.56;;;6.31;67.22
8280;BME280;8335;42.646;23.380;2023-04-27T03:43:52;143165.75;;;6.34;67.04
8280;BME280;8335;42.646;23.380;2023-04-27T03:46:19;143107.53;;;6.10;66.91
8280;BME280;8335;42.646;23.380;2023-04-27T03:48:45;143158.31;;;6.31;67.46
8280;BME280;8335;42.646;23.380;2023-04-27T03:51:12;143118.69;;;6.15;67.13
8280;BME280;8335;42.646;23.380;2023-04-27T03:53:39;143190.53;;;6.44;66.52
8280;BME280;8335;42.646;23.380;2023-04-27T03:56:06;143185.53;;;6.42;66.34
8280;BME280;8335;42.646;23.380;2023-04-27T03:58:34;143181.84;;;6.41;67.57
8280;BME280;8335;42.646;23.380;2023-04-27T04:01:01;143170.72;;;6.36;66.85
8280;BME280;8335;42.646;23.380;2023-04-27T04:03:28;143209.13;;;6.52;66.04
8280;BME280;8335;42.646;23.380;2023-04-27T04:05:54;143212.81;;;6.53;65.27
8280;BME280;8335;42.646;23.380;2023-04-27T04:08:21;143207.88;;;6.51;65.79
8280;BME280;8335;42.646;23.380;2023-04-27T04:10:48;143226.47;;;6.59;65.37
8280;BME280;8335;42.646;23.380;2023-04-27T04:13:15;143220.25;;;6.56;65.07
8280;BME280;8335;42.646;23.380;2023-04-27T04:15:43;143263.63;;;6.74;65.11
8280;BME280;8335;42.646;23.380;2023-04-27T04:18:10;143264.88;;;6.75;65.35
8280;BME280;8335;42.646;23.380;2023-04-27T04:20:36;143264.88;;;6.75;65.23
8280;BME280;8335;42.646;23.380;2023-04-27T04:23:03;143274.78;;;6.79;65.10
8280;BME280;8335;42.646;23.380;2023-04-27T04:25:30;143279.75;;;6.81;64.52
8280;BME280;8335;42.646;23.380;2023-04-27T04:27:57;143292.16;;;6.86;64.91
8280;BME280;8335;42.646;23.380;2023-04-27T04:30:24;143316.91;;;6.96;65.50
8280;BME280;8335;42.646;23.380;2023-04-27T04:32:53;143336.75;;;7.04;64.78
8280;BME280;8335;42.646;23.380;2023-04-27T04:35:20;143362.78;;;7.15;63.38
8280;BME280;8335;42.646;23.380;2023-04-27T04:37:47;143418.56;;;7.38;63.37
8280;BME280;8335;42.646;23.380;2023-04-27T04:40:14;143459.47;;;7.55;63.33
8280;BME280;8335;42.646;23.380;2023-04-27T04:42:41;143476.84;;;7.62;61.70
8280;BME280;8335;42.646;23.380;2023-04-27T04:45:08;143517.78;;;7.79;60.90
8280;BME280;8335;42.646;23.380;2023-04-27T04:47:35;143535.09;;;7.86;60.46
8280;BME280;8335;42.646;23.380;2023-04-27T04:50:06;143555.00;;;7.94;60.40
8280;BME280;8335;42.646;23.380;2023-04-27T04:52:34;143624.47;;;8.22;60.09
8280;BME280;8335;42.646;23.380;2023-04-27T04:55:01;143672.88;;;8.42;60.04
8280;BME280;8335;42.646;23.380;2023-04-27T04:57:29;143778.34;;;8.86;58.18
8280;BME280;8335;42.646;23.380;2023-04-27T04:59:55;143862.78;;;9.20;57.00
8280;BME280;8335;42.646;23.380;2023-04-27T05:02:22;144072.72;;;10.06;54.48
8280;BME280;8335;42.646;23.380;2023-04-27T05:04:49;144434.59;;;11.54;49.93
8280;BME280;8335;42.646;23.380;2023-04-27T05:07:18;144793.16;;;13.01;46.30
8280;BME280;8335;42.646;23.380;2023-04-27T05:09:45;145057.38;;;14.09;42.56
8280;BME280;8335;42.646;23.380;2023-04-27T05:12:12;145202.03;;;14.68;40.68
8280;BME280;8335;42.646;23.380;2023-04-27T05:14:38;145182.09;;;14.60;41.32
8280;BME280;8335;42.646;23.380;2023-04-27T05:17:05;145150.91;;;14.47;40.75
8280;BME280;8335;42.646;23.380;2023-04-27T05:19:32;145072.31;;;14.15;41.20
8280;BME280;8335;42.646;23.380;2023-04-27T05:21:59;145014.97;;;13.92;41.47
8280;BME280;8335;42.646;23.380;2023-04-27T05:24:27;144911.50;;;13.49;42.10
8280;BME280;8335;42.646;23.380;2023-04-27T05:26:53;144725.91;;;12.74;44.01
8280;BME280;8335;42.646;23.380;2023-04-27T05:29:20;144539.16;;;11.97;45.09
8280;BME280;8335;42.646;23.380;2023-04-27T05:31:47;144409.72;;;11.44;45.83
8280;BME280;8335;42.646;23.380;2023-04-27T05:34:14;144333.81;;;11.13;46.77
8280;BME280;8335;42.646;23.380;2023-04-27T05:36:41;144240.56;;;10.75;49.96
8280;BME280;8335;42.646;23.380;2023-04-27T05:39:08;144194.56;;;10.56;49.80
8280;BME280;8335;42.646;23.380;2023-04-27T05:41:37;144141.13;;;10.34;51.20
8280;BME280;8335;42.646;23.380;2023-04-27T05:44:04;144128.72;;;10.29;51.00
8280;BME280;8335;42.646;23.380;2023-04-27T05:46:31;144061.56;;;10.02;52.09
8280;BME280;8335;42.646;23.380;2023-04-27T05:48:59;144078.97;;;10.09;51.62
8280;BME280;8335;42.646;23.380;2023-04-27T05:51:26;144009.38;;;9.80;51.81
8280;BME280;8335;42.646;23.380;2023-04-27T05:53:53;144040.44;;;9.93;52.48
8280;BME280;8335;42.646;23.380;2023-04-27T05:56:20;144009.38;;;9.80;53.35
8280;BME280;8335;42.646;23.380;2023-04-27T05:58:48;143980.78;;;9.69;53.65
8280;BME280;8335;42.646;23.380;2023-04-27T06:01:15;143970.88;;;9.64;53.12
8280;BME280;8335;42.646;23.380;2023-04-27T06:03:41;143953.50;;;9.57;53.62
8280;BME280;8335;42.646;23.380;2023-04-27T06:06:08;143938.56;;;9.51;54.05
8280;BME280;8335;42.646;23.380;2023-04-27T06:08:35;143947.25;;;9.55;54.63
8280;BME280;8335;42.646;23.380;2023-04-27T06:11:04;144035.44;;;9.91;53.57
8280;BME280;8335;42.646;23.380;2023-04-27T06:13:30;144100.06;;;10.17;52.68
8280;BME280;8335;42.646;23.380;2023-04-27T06:15:59;144221.94;;;10.67;52.19
8280;BME280;8335;42.646;23.380;2023-04-27T06:18:26;144447.03;;;11.60;49.86
8280;BME280;8335;42.646;23.380;2023-04-27T06:20:57;144664.88;;;12.49;47.78
8280;BME280;8335;42.646;23.380;2023-04-27T06:23:24;144851.72;;;13.25;45.75
8280;BME280;8335;42.646;23.380;2023-04-27T06:25:51;144882.88;;;13.38;44.51
8280;BME280;8335;42.646;23.380;2023-04-27T06:28:18;144852.97;;;13.26;44.43
8280;BME280;8335;42.646;23.380;2023-04-27T06:30:44;144764.50;;;12.89;45.40
8280;BME280;8335;42.646;23.380;2023-04-27T06:33:13;144753.28;;;12.85;45.38
8280;BME280;8335;42.646;23.380;2023-04-27T06:35:39;144697.25;;;12.62;45.72
8280;BME280;8335;42.646;23.380;2023-04-27T06:38:06;144684.78;;;12.57;46.16
8280;BME280;8335;42.646;23.380;2023-04-27T06:40:34;144644.94;;;12.40;47.14
8280;BME280;8335;42.646;23.380;2023-04-27T06:43:01;144646.19;;;12.41;47.27
8280;BME280;8335;42.646;23.380;2023-04-27T06:45:28;144626.28;;;12.33;46.55
8280;BME280;8335;42.646;23.380;2023-04-27T06:47:55;144702.22;;;12.64;47.27
8280;BME280;8335;42.646;23.380;2023-04-27T06:50:23;144801.84;;;13.05;45.94
8280;BME280;8335;42.646;23.380;2023-04-27T06:52:50;144844.28;;;13.22;46.07
8280;BME280;8335;42.646;23.380;2023-04-27T06:55:16;144881.66;;;13.37;45.00
8280;BME280;8335;42.646;23.380;2023-04-27T06:57:43;144910.28;;;13.49;45.26
8280;BME280;8335;42.646;23.380;2023-04-27T07:00:11;144991.28;;;13.82;44.84
8280;BME280;8335;42.646;23.380;2023-04-27T07:02:38;145048.63;;;14.05;43.31
8280;BME280;8335;42.646;23.380;2023-04-27T07:05:05;145083.53;;;14.20;42.95
8280;BME280;8335;42.646;23.380;2023-04-27T07:07:34;145084.75;;;14.20;43.35
8280;BME280;8335;42.646;23.380;2023-04-27T07:10:00;145124.69;;;14.37;42.57
8280;BME280;8335;42.646;23.380;2023-04-27T07:12:27;145153.41;;;14.48;41.99
8280;BME280;8335;42.646;23.380;2023-04-27T07:14:54;145192.03;;;14.64;41.91
8280;BME280;8335;42.646;23.380;2023-04-27T07:17:21;145356.72;;;15.31;41.86
8280;BME280;8335;42.646;23.380;2023-04-27T07:19:47;145534.00;;;16.04;39.98
8280;BME280;8335;42.646;23.380;2023-04-27T07:22:14;145606.41;;;16.33;38.80
8280;BME280;8335;42.646;23.380;2023-04-27T07:24:43;145748.84;;;16.91;39.39
8280;BME280;8335;42.646;23.380;2023-04-27T07:27:10;145887.53;;;17.48;37.33
8280;BME280;8335;42.646;23.380;2023-04-27T07:29:37;145920.06;;;17.61;37.42
8280;BME280;8335;42.646;23.380;2023-04-27T07:32:05;146077.63;;;18.25;36.06
8280;BME280;8335;42.646;23.380;2023-04-27T07:34:32;146301.59;;;19.16;33.96
8280;BME280;8335;42.646;23.380;2023-04-27T07:36:59;146593.31;;;20.35;32.24
8280;BME280;8335;42.646;23.380;2023-04-27T07:39:26;146813.88;;;21.25;31.91
8280;BME280;8335;42.646;23.380;2023-04-27T07:41:54;146836.47;;;21.34;29.77
8280;BME280;8335;42.646;23.380;2023-04-27T07:44:22;146714.88;;;20.84;30.41
8280;BME280;8335;42.646;23.380;2023-04-27T07:46:50;146628.44;;;20.49;30.87
8280;BME280;8335;42.646;23.380;2023-04-27T07:49:18;146642.22;;;20.55;31.09
8280;BME280;8335;42.646;23.380;2023-04-27T07:51:45;146589.56;;;20.33;31.20
8280;BME280;8335;42.646;23.380;2023-04-27T07:54:12;146630.97;;;20.50;30.29
8280;BME280;8335;42.646;23.380;2023-04-27T07:56:40;146671.03;;;20.67;29.29
8280;BME280;8335;42.646;23.380;2023-04-27T07:59:08;146560.78;;;20.22;29.78
8280;BME280;8335;42.646;23.380;2023-04-27T08:01:35;146416.75;;;19.63;30.59
8280;BME280;8335;42.646;23.380;2023-04-27T08:04:02;146395.44;;;19.55;30.83
8280;BME280;8335;42.646;23.380;2023-04-27T08:06:28;146324.13;;;19.25;30.84
8280;BME280;8335;42.646;23.380;2023-04-27T08:08:55;146387.97;;;19.51;30.22
8280;BME280;8335;42.646;23.380;2023-04-27T08:11:25;146490.66;;;19.93;31.29
8280;BME280;8335;42.646;23.380;2023-04-27T08:13:51;146677.28;;;20.69;30.84
8280;BME280;8335;42.646;23.380;2023-04-27T08:16:19;146897.91;;;21.59;28.99
8280;BME280;8335;42.646;23.380;2023-04-27T08:18:48;146953.06;;;21.81;29.56
8280;BME280;8335;42.646;23.380;2023-04-27T08:21:15;146719.91;;;20.86;29.99
8280;BME280;8335;42.646;23.380;2023-04-27T08:23:41;146788.78;;;21.14;29.69
8280;BME280;8335;42.646;23.380;2023-04-27T08:26:13;146791.34;;;21.15;30.03
8280;BME280;8335;42.646;23.380;2023-04-27T08:28:40;146663.50;;;20.64;30.31
8280;BME280;8335;42.646;23.380;2023-04-27T08:31:06;146450.56;;;19.77;31.73
8280;BME280;8335;42.646;23.380;2023-04-27T08:33:34;146365.41;;;19.42;31.37
8280;BME280;8335;42.646;23.380;2023-04-27T08:36:01;146339.13;;;19.32;33.16
8280;BME280;8335;42.646;23.380;2023-04-27T08:38:28;146307.84;;;19.19;33.07
8280;BME280;8335;42.646;23.380;2023-04-27T08:40:55;146365.41;;;19.42;32.03
8280;BME280;8335;42.646;23.380;2023-04-27T08:43:22;146371.69;;;19.45;31.89
8280;BME280;8335;42.646;23.380;2023-04-27T08:45:49;146349.13;;;19.36;31.91
8280;BME280;8335;42.646;23.380;2023-04-27T08:48:16;146299.09;;;19.15;32.27
8280;BME280;8335;42.646;23.380;2023-04-27T08:50:49;146247.81;;;18.94;33.36
8280;BME280;8335;42.646;23.380;2023-04-27T08:53:16;146183.97;;;18.68;32.25
8280;BME280;8335;42.646;23.380;2023-04-27T08:55:43;146100.13;;;18.34;32.57
8280;BME280;8335;42.646;23.380;2023-04-27T08:58:10;145985.13;;;17.87;32.93
8280;BME280;8335;42.646;23.380;2023-04-27T09:00:38;145892.53;;;17.50;34.04
8280;BME280;8335;42.646;23.380;2023-04-27T09:03:06;145811.34;;;17.17;34.67
8280;BME280;8335;42.646;23.380;2023-04-27T09:05:33;145821.31;;;17.21;34.57
8280;BME280;8335;42.646;23.380;2023-04-27T09:08:02;145637.66;;;16.46;34.19
8280;BME280;8335;42.646;23.380;2023-04-27T09:10:43;145718.91;;;16.79;35.17
8280;BME280;8335;42.646;23.380;2023-04-27T09:13:10;145660.13;;;16.55;36.03
8280;BME280;8335;42.646;23.380;2023-04-27T09:15:41;145662.59;;;16.56;35.15
8280;BME280;8335;42.646;23.380;2023-04-27T09:18:14;145641.38;;;16.47;35.74
8280;BME280;8335;42.646;23.380;2023-04-27T09:20:42;145657.63;;;16.54;36.15
8280;BME280;8335;42.646;23.380;2023-04-27T09:23:25;145698.88;;;16.71;36.70
8280;BME280;8335;42.646;23.380;2023-04-27T09:25:53;145832.56;;;17.25;35.89
8280;BME280;8335;42.646;23.380;2023-04-27T09:28:20;145845.06;;;17.30;34.36
8280;BME280;8335;42.646;23.380;2023-04-27T09:30:51;145841.34;;;17.29;34.53
8280;BME280;8335;42.646;23.380;2023-04-27T09:33:23;145870.03;;;17.41;35.15
8280;BME280;8335;42.646;23.380;2023-04-27T09:35:49;145853.81;;;17.34;33.83
8280;BME280;8335;42.646;23.380;2023-04-27T09:38:19;145810.09;;;17.16;34.53
8280;BME280;8335;42.646;23.380;2023-04-27T09:40:46;145687.59;;;16.66;35.54
8280;BME280;8335;42.646;23.380;2023-04-27T09:43:13;145622.66;;;16.40;36.20
8280;BME280;8335;42.646;23.380;2023-04-27T09:45:40;145551.47;;;16.11;37.19
8280;BME280;8335;42.646;23.380;2023-04-27T09:48:08;145550.22;;;16.10;35.61
8280;BME280;8335;42.646;23.380;2023-04-27T09:50:36;145558.94;;;16.14;36.70
8280;BME280;8335;42.646;23.380;2023-04-27T09:53:05;145561.50;;;16.15;36.42
8280;BME280;8335;42.646;23.380;2023-04-27T09:55:38;145514.03;;;15.95;36.53
8280;BME280;8335;42.646;23.380;2023-04-27T09:58:24;145691.34;;;16.68;36.28
8280;BME280;8335;42.646;23.380;2023-04-27T10:01:00;145827.59;;;17.23;35.77
8280;BME280;8335;42.646;23.380;2023-04-27T10:03:36;145800.06;;;17.12;34.91
8280;BME280;8335;42.646;23.380;2023-04-27T10:09:19;145776.34;;;17.02;34.21
8280;BME280;8335;42.646;23.380;2023-04-27T10:11:50;145821.31;;;17.21;35.51
8280;BME280;8335;42.646;23.380;2023-04-27T10:14:18;145822.53;;;17.21;34.07
8280;BME280;8335;42.646;23.380;2023-04-27T10:16:52;145817.56;;;17.19;33.53
8280;BME280;8335;42.646;23.380;2023-04-27T10:19:20;145693.84;;;16.69;34.65
8280;BME280;8335;42.646;23.380;2023-04-27T10:21:51;145718.91;;;16.79;34.12
8280;BME280;8335;42.646;23.380;2023-04-27T10:24:18;145666.38;;;16.58;35.28
8280;BME280;8335;42.646;23.380;2023-04-27T10:27:01;145577.69;;;16.21;36.28
8280;BME280;8335;42.646;23.380;2023-04-27T10:29:40;145630.13;;;16.43;36.04
8280;BME280;8335;42.646;23.380;2023-04-27T10:32:10;145670.13;;;16.59;35.86
8280;BME280;8335;42.646;23.380;2023-04-27T10:34:38;145738.88;;;16.87;35.46
8280;BME280;8335;42.646;23.380;2023-04-27T10:37:06;145702.66;;;16.72;34.86
8280;BME280;8335;42.646;23.380;2023-04-27T10:39:35;145625.13;;;16.41;35.77
8280;BME280;8335;42.646;23.380;2023-04-27T10:42:04;145605.16;;;16.33;35.23
8280;BME280;8335;42.646;23.380;2023-04-27T10:44:33;145575.19;;;16.20;34.95
8280;BME280;8335;42.646;23.380;2023-04-27T10:47:01;145667.63;;;16.58;35.90
8280;BME280;8335;42.646;23.380;2023-04-27T10:49:28;145766.34;;;16.98;35.43
8280;BME280;8335;42.646;23.380;2023-04-27T10:51:57;145742.63;;;16.89;34.27
8280;BME280;8335;42.646;23.380;2023-04-27T10:54:26;145658.88;;;16.55;34.13
8280;BME280;8335;42.646;23.380;2023-04-27T10:56:53;145602.69;;;16.32;34.30
8280;BME280;8335;42.646;23.380;2023-04-27T10:59:22;145540.22;;;16.06;35.75
8280;BME280;8335;42.646;23.380;2023-04-27T11:01:48;145527.78;;;16.01;36.32
8280;BME280;8335;42.646;23.380;2023-04-27T11:04:16;145510.31;;;15.94;35.42
8280;BME280;8335;42.646;23.380;2023-04-27T11:06:44;145501.53;;;15.90;35.77
8280;BME280;8335;42.646;23.380;2023-04-27T11:09:12;145538.97;;;16.06;36.86
8280;BME280;8335;42.646;23.380;2023-04-27T11:11:43;145540.22;;;16.06;34.19
8280;BME280;8335;42.646;23.380;2023-04-27T11:14:14;145536.50;;;16.05;35.21
8280;BME280;8335;42.646;23.380;2023-04-27T11:16:46;145511.53;;;15.94;35.52
8280;BME280;8335;42.646;23.380;2023-04-27T11:19:13;145431.63;;;15.62;36.12
8280;BME280;8335;42.646;23.380;2023-04-27T11:21:40;145447.88;;;15.68;36.30
8280;BME280;8335;42.646;23.380;2023-04-27T11:24:08;145446.63;;;15.68;34.77
8280;BME280;8335;42.646;23.380;2023-04-27T11:26:35;145422.88;;;15.58;35.29
8280;BME280;8335;42.646;23.380;2023-04-27T11:29:04;145375.44;;;15.39;35.40
8280;BME280;8335;42.646;23.380;2023-04-27T11:31:39;145346.72;;;15.27;36.14
8280;BME280;8335;42.646;23.380;2023-04-27T11:34:14;145331.75;;;15.21;36.23
8280;BME280;8335;42.646;23.380;2023-04-27T11:36:41;145305.56;;;15.10;36.64
8280;BME280;8335;42.646;23.380;2023-04-27T11:39:08;145298.09;;;15.07;37.72
8280;BME280;8335;42.646;23.380;2023-04-27T11:41:42;145264.41;;;14.94;37.78
8280;BME280;8335;42.646;23.380;2023-04-27T11:44:11;145241.94;;;14.84;37.99
8280;BME280;8335;42.646;23.380;2023-04-27T11:46:38;145280.63;;;15.00;37.01
8280;BME280;8335;42.646;23.380;2023-04-27T11:49:07;145341.75;;;15.25;39.71
8280;BME280;8335;42.646;23.380;2023-04-27T11:51:35;145409.13;;;15.53;38.45
8280;BME280;8335;42.646;23.380;2023-04-27T11:54:03;145505.28;;;15.92;37.55
8280;BME280;8335;42.646;23.380;2023-04-27T11:56:34;145549.00;;;16.10;35.86
8280;BME280;8335;42.646;23.380;2023-04-27T11:59:01;145521.50;;;15.99;35.60
8280;BME280;8335;42.646;23.380;2023-04-27T12:01:29;145495.31;;;15.88;35.88
8280;BME280;8335;42.646;23.380;2023-04-27T12:03:56;145487.78;;;15.85;36.34
8280;BME280;8335;42.646;23.380;2023-04-27T12:06:24;145450.34;;;15.69;36.45
8280;BME280;8335;42.646;23.380;2023-04-27T12:08:52;145464.09;;;15.75;36.59
8280;BME280;8335;42.646;23.380;2023-04-27T12:11:19;145496.56;;;15.88;36.57
8280;BME280;8335;42.646;23.380;2023-04-27T12:13:46;145435.38;;;15.63;35.65
8280;BME280;8335;42.646;23.380;2023-04-27T12:16:13;145402.91;;;15.50;35.79
8280;BME280;8335;42.646;23.380;2023-04-27T12:18:39;145377.94;;;15.40;36.28
8280;BME280;8335;42.646;23.380;2023-04-27T12:21:06;145402.91;;;15.50;35.65
8280;BME280;8335;42.646;23.380;2023-04-27T12:23:35;145414.13;;;15.55;36.11
8280;BME280;8335;42.646;23.380;2023-04-27T12:26:03;145369.22;;;15.36;36.18
8280;BME280;8335;42.646;23.380;2023-04-27T12:28:30;145328.00;;;15.20;36.43
8280;BME280;8335;42.646;23.380;2023-04-27T12:30:56;145268.16;;;14.95;37.49
8280;BME280;8335;42.646;23.380;2023-04-27T12:33:23;145280.63;;;15.00;37.05
8280;BME280;8335;42.646;23.380;2023-04-27T12:35:50;145280.63;;;15.00;37.17
8280;BME280;8335;42.646;23.380;2023-04-27T12:38:17;145314.28;;;15.14;37.53
8280;BME280;8335;42.646;23.380;2023-04-27T12:40:44;145340.50;;;15.25;36.40
8280;BME280;8335;42.646;23.380;2023-04-27T12:43:12;145341.75;;;15.25;36.18
8280;BME280;8335;42.646;23.380;2023-04-27T12:45:39;145339.25;;;15.24;37.23
8280;BME280;8335;42.646;23.380;2023-04-27T12:48:06;145303.09;;;15.09;36.92
8280;BME280;8335;42.646;23.380;2023-04-27T12:50:35;145245.72;;;14.86;37.26
8280;BME280;8335;42.646;23.380;2023-04-27T12:53:03;145290.59;;;15.04;37.22
8280;BME280;8335;42.646;23.380;2023-04-27T12:55:29;145276.88;;;14.99;37.31
8280;BME280;8335;42.646;23.380;2023-04-27T12:57:56;145289.34;;;15.04;37.61
8280;BME280;8335;42.646;23.380;2023-04-27T13:00:25;145263.19;;;14.93;37.48
8280;BME280;8335;42.646;23.380;2023-04-27T13:02:52;145271.88;;;14.97;37.48
8280;BME280;8335;42.646;23.380;2023-04-27T13:05:19;145260.63;;;14.92;38.58
8280;BME280;8335;42.646;23.380;2023-04-27T13:07:46;145305.56;;;15.10;37.98
8280;BME280;8335;42.646;23.380;2023-04-27T13:10:13;145328.00;;;15.20;37.91